This is the latest recevied weather packets stored in our database for station/object SA3PJN-WX. If no packets are shown the sender has not sent any weather packets the latest 1 day(s).
| Time | Temp. | Humidity | Pressure | Rain* | Wind** | Luminosity | Snow |
|---|---|---|---|---|---|---|---|
| 1778053622 | 6.67° C | 50% | 966.5 hPa | - | - | - | - |
| 1778053322 | 6.67° C | 51% | 966.4 hPa | - | - | - | - |
| 1778053022 | 6.67° C | 53% | 966.4 hPa | - | - | - | - |
| 1778052721 | 5.56° C | 53% | 966.4 hPa | - | - | - | - |
| 1778051221 | 5° C | 55% | 966 hPa | - | - | - | - |
| 1778050591 | 6.11° C | 57% | 966.1 hPa | - | - | - | - |
| 1778049091 | 4.44° C | 59% | 966 hPa | - | - | - | - |
| 1778046241 | 3.33° C | 63% | 965.5 hPa | - | - | - | - |
| 1778045941 | 3.33° C | 62% | 965.4 hPa | - | - | - | - |
| 1778045611 | 3.89° C | 62% | 965.4 hPa | - | - | - | - |
| 1778044981 | 3.89° C | 62% | 965.5 hPa | - | - | - | - |
| 1778044681 | 3.33° C | 62% | 965.3 hPa | - | - | - | - |
| 1778044381 | 3.33° C | 62% | 965.4 hPa | - | - | - | - |
| 1778044081 | 3.89° C | 63% | 965.3 hPa | - | - | - | - |
| 1778043781 | 3.33° C | 65% | 965.3 hPa | - | - | - | - |
| 1778043451 | 2.78° C | 64% | 965.3 hPa | - | - | - | - |
| 1778043151 | 2.78° C | 64% | 965.1 hPa | - | - | - | - |
| 1778042851 | 2.78° C | 66% | 965.2 hPa | - | - | - | - |
| 1778042551 | 2.78° C | 67% | 965.4 hPa | - | - | - | - |
| 1778042251 | 2.22° C | 67% | 965.2 hPa | - | - | - | - |
| 1778041951 | 2.22° C | 68% | 965.2 hPa | - | - | - | - |
| 1778041621 | 1.67° C | 70% | 965.2 hPa | - | - | - | - |
| 1778041321 | 0° C | 74% | 965.2 hPa | - | - | - | - |
| 1778041021 | 0.56° C | 71% | 965 hPa | - | - | - | - |
| 1778040721 | 2.22° C | 67% | 965 hPa | - | - | - | - |
* Rain since midnight (hover to see other rain measurements)
** Current wind speed in m/s (hover to see current wind gust speed)